Terminal Aerodrome Forecast
Issued by NWS

Current Version | Previous Version | Text Only | Print | Product List | Glossary On
Versions: 1 2 3 4 5 6 7 8 9 10 11 12 13 14 15 16 17 18 19 20 21 22 23 24 25 26 27 28 29 30
000
FTAK31 PANC 271732
TAFAGK
TAF
PAGK 271732Z 2718/2818 VRB05KT P6SM VCSH OVC060
     FM272300 17006KT P6SM OVC080
     FM280900 VRB03KT P6SM SCT060 BKN120=

USA.gov is the U.S. government's official web portal to all federal, state and local government web resources and services.